Terminal Aerodrome Forecast
Issued by NWS

Home | Current Version | Previous Version | Text Only | Print | Product List | Glossary On
Versions: 1 2 3 4 5 6 7 8 9 10 11 12 13 14 15
000
FTUS46 KSGX 251120
TAFONT
TAF
KONT 251120Z 2512/2618 VRB04KT 5SM BR BKN010 BKN030
     FM251700 26005KT 6SM HZ SCT015 SCT030
     FM252000 25011G18KT P6SM SKC
     FM260400 24005KT P6SM SKC
     FM261100 VRB03KT 6SM BR SCT010=

USA.gov is the U.S. government's official web portal to all federal, state and local government web resources and services.